Stockholm, NJ (07460)

8:20 AM EDT on August 21, 2019 (GMT -0400)
Canistear Reservoir | | Change Station
Active Advisory: Special Statement

Elev 1207 ft 41.11 °N, 74.48 °W | Updated 8 seconds ago

Partly Cloudy
Partly Cloudy
72.9 °F
Feels Like 72.9 °F
N
0
Wind Variable Wind from SSE
Gusts 0.0 mph

Today
High -- | Low -- °F
--% Chance of Precip.
Yesterday
High -- | Low -- °F
Precip. -- in
Pressure 29.96 in
Visibility 7.0 miles
Clouds Clear
Dew Point 71 °F
Humidity 94%
Rainfall 0.00 in
Snow Depth Not available.
6:13 AM 7:48 PM
Waning Gibbous, 71% visible
METAR KFWN 211153Z AUTO 00000KT 7SM CLR 22/21 A2997 RMK AO2 SLP146 T02220211 10228 20200 56004
Pressure 29.96 in
Visibility 7.0 miles
Clouds Clear
Dew Point 71 °F
Humidity 94%
Rainfall 0.00 in
Snow Depth Not available.
6:13 AM 7:48 PM
Waning Gibbous, 71% visible
METAR KFWN 211153Z AUTO 00000KT 7SM CLR 22/21 A2997 RMK AO2 SLP146 T02220211 10228 20200 56004

Get Your Daily Forecast Email!

Thanks for signing up!

Be on the lookout for a verification email in your inbox.

You'll start receiving severe weather alerts in your inbox..

×

10-Day Weather Forecast

Almanac

Astronomy

Aug. 21, 2019 Rise Set
Actual Time
Civil Twilight
Nautical Twilight
Astronomical Twilight
Moon
Length of Visible Light
Length of Day
Tomorrow will be .
, % of the Moon is Illuminated

Today's Extremes

State Highs State Lows

Community

WunderPhotos

Category 6

Welcome to Category 6. This is the collective home for Weather Underground's featured writeups by Dr. Jeff Masters (right), Bob Henson (left), Chris Burt, and other regular contributors.

Nearby

Air Quality

  Air Quality AQ Index Pollutant
Not available.

Snow Depth

Station Depth Elevation

Earthquake Activity

City Distance Mag. Time & Date
Minimum magnitude displayed is 2.5.

Coastal Water Temperatures

Place Temperature

Stations

Nearby Weather Stations

Station Location Temp. Windchill Dew Point Humidity Wind Precip. Elev Updated Type
                   

Watches & Warnings

Special Statement
Issued: 6:36 AM EDT Aug. 21, 2019 – National Weather Service

Areas of fog have developed this morning and will continue through
the mid morning hours before dissipating. Some areas will have
their visibility drop below one mile at times.

Be alert for rapidly changing visibility. If driving, slow down, use
your headlights, and leave plenty of distance ahead of you.


Robertson


636 am EDT Wed Aug 21 2019

Areas of fog have developed this morning and will continue through
the mid morning hours before dissipating. Some areas will have
their visibility drop below one mile at times.

Be alert for rapidly changing visibility. If driving, slow down, use
your headlights, and leave plenty of distance ahead of you.


Robertson